Time;durP1;ratioP1;P1;durP2;ratioP2;P2;SDS_P1;SDS_P2;PMS_P1;PMS_P2;Temp;Humidity;BMP_temperature;BMP_pressure;BME280_temperature;BME280_humidity;BME280_pressure;Samples;Min_cycle;Max_cycle;Signal;HPM_P1;HPM_P2
2022/01/24 00:00:53;;;;;;;39.30;19.83;;;;;;;;;;5069507;28;20030;-50
2022/01/24 00:03:19;;;;;;;45.95;21.77;;;;;;;;;;5071651;28;20032;-51
2022/01/24 00:05:45;;;;;;;40.65;19.05;;;;;;;;;;5071909;28;20020;-54
2022/01/24 00:08:11;;;;;;;40.75;18.77;;;;;;;;;;5071046;28;20093;-51
2022/01/24 00:10:39;;;;;;;51.63;24.10;;;;;;;;;;5071390;28;20024;-51
2022/01/24 00:15:59;;;;;;;;;;;;;;;;;;5071465;28;20504;-46
2022/01/24 00:26:38;;;;;;;52.92;23.35;;;;;;;;;;5071129;28;19919;-49
2022/01/24 00:26:45;;;;;;;42.10;19.27;;;;;;;;;;5070977;28;20133;-48
2022/01/24 00:29:12;;;;;;;57.22;27.02;;;;;;;;;;5070931;28;20083;-49
2022/01/24 00:31:38;;;;;;;55.95;22.85;;;;;;;;;;5071147;28;20028;-51
2022/01/24 00:34:04;;;;;;;85.38;36.75;;;;;;;;;;5071101;28;20062;-48
2022/01/24 00:36:31;;;;;;;52.17;22.15;;;;;;;;;;5071263;28;20027;-49
2022/01/24 00:38:57;;;;;;;63.17;25.83;;;;;;;;;;5070776;28;20039;-48
2022/01/24 00:41:24;;;;;;;43.08;18.80;;;;;;;;;;5070614;28;20025;-54
2022/01/24 00:46:50;;;;;;;43.13;19.60;;;;;;;;;;5066197;28;20424;-51
2022/01/24 00:54:43;;;;;;;45.03;17.77;;;;;;;;;;5096049;28;20127;-48
2022/01/24 00:57:09;;;;;;;49.70;21.38;;;;;;;;;;5095623;28;20032;-47
2022/01/24 00:59:35;;;;;;;52.00;20.67;;;;;;;;;;5095781;28;20056;-48
2022/01/24 01:02:02;;;;;;;50.28;20.88;;;;;;;;;;5095807;28;20042;-49
2022/01/24 01:04:38;;;;;;;48.13;21.77;;;;;;;;;;5095737;28;20024;-47
2022/01/24 01:07:06;;;;;;;102.25;46.35;;;;;;;;;;5095661;28;20028;-53
2022/01/24 01:18:10;;;;;;;35.22;17.70;;;;;;;;;;5095460;28;20035;-52
2022/01/24 01:23:21;;;;;;;31.92;15.60;;;;;;;;;;5095525;28;20496;-49
2022/01/24 01:25:48;;;;;;;35.50;16.85;;;;;;;;;;5095229;28;20028;-54
2022/01/24 01:28:15;;;;;;;25.40;12.20;;;;;;;;;;5095136;28;20153;-48
2022/01/24 01:30:46;;;;;;;43.78;19.70;;;;;;;;;;5095202;28;20054;-47
2022/01/24 01:33:25;;;;;;;29.55;13.13;;;;;;;;;;5095055;28;20055;-49
2022/01/24 01:57:11;;;;;;;27.27;13.50;;;;;;;;;;5094685;28;20036;-48
2022/01/24 01:59:37;;;;;;;28.10;14.35;;;;;;;;;;5094726;28;20032;-51
2022/01/24 02:02:03;;;;;;;31.52;15.63;;;;;;;;;;5094648;28;20028;-52
2022/01/24 02:04:29;;;;;;;22.23;11.65;;;;;;;;;;5094411;28;20474;-49
2022/01/24 02:06:55;;;;;;;22.48;11.25;;;;;;;;;;5094366;28;20084;-47
2022/01/24 02:09:28;;;;;;;29.38;14.57;;;;;;;;;;5094417;28;20024;-48
2022/01/24 02:11:54;;;;;;;28.83;14.07;;;;;;;;;;5094478;28;20028;-48
2022/01/24 02:14:29;;;;;;;23.75;12.07;;;;;;;;;;5093362;28;20039;-50
2022/01/24 02:17:02;;;;;;;28.45;14.70;;;;;;;;;;5094369;28;20013;-49
2022/01/24 02:19:46;;;;;;;26.75;12.02;;;;;;;;;;5094174;28;20048;-49
2022/01/24 02:22:41;;;;;;;25.20;13.10;;;;;;;;;;5094020;28;20028;-48
2022/01/24 02:25:11;;;;;;;22.15;11.57;;;;;;;;;;5093783;28;20042;-48
2022/01/24 02:27:45;;;;;;;25.35;13.30;;;;;;;;;;5094144;28;20079;-48
2022/01/24 02:32:39;;;;;;;22.35;11.93;;;;;;;;;;5093919;28;20042;-53
2022/01/24 02:35:05;;;;;;;23.33;12.60;;;;;;;;;;5093893;28;20012;-49
2022/01/24 02:37:31;;;;;;;20.58;9.77;;;;;;;;;;5094099;28;20143;-48
2022/01/24 02:40:30;;;;;;;24.75;11.95;;;;;;;;;;5094144;28;20020;-47
2022/01/24 02:48:30;;;;;;;19.80;10.40;;;;;;;;;;5093823;28;20051;-47
2022/01/24 02:53:38;;;;;;;21.20;11.27;;;;;;;;;;5093655;28;20066;-46
2022/01/24 02:56:05;;;;;;;24.55;12.18;;;;;;;;;;5093496;28;20016;-49
2022/01/24 02:58:31;;;;;;;19.00;9.35;;;;;;;;;;5093736;28;20035;-48
2022/01/24 03:00:57;;;;;;;18.67;9.70;;;;;;;;;;5093523;28;20027;-48
2022/01/24 03:03:24;;;;;;;18.23;10.05;;;;;;;;;;5093655;28;20039;-51
2022/01/24 03:05:50;;;;;;;24.15;10.45;;;;;;;;;;5093794;28;20020;-54
2022/01/24 03:08:16;;;;;;;21.90;10.60;;;;;;;;;;5093311;28;20115;-54
2022/01/24 03:10:47;;;;;;;17.20;9.57;;;;;;;;;;5093582;28;20028;-48
2022/01/24 03:15:41;;;;;;;19.08;10.27;;;;;;;;;;5093590;28;20049;-48
2022/01/24 03:18:07;;;;;;;16.73;9.65;;;;;;;;;;5093381;28;20032;-52
2022/01/24 03:20:34;;;;;;;17.92;8.95;;;;;;;;;;5093458;28;20020;-46
2022/01/24 03:23:00;;;;;;;18.50;10.00;;;;;;;;;;5093306;28;20046;-52
2022/01/24 03:25:27;;;;;;;16.30;9.15;;;;;;;;;;5093449;28;20031;-52
2022/01/24 03:27:53;;;;;;;20.40;9.50;;;;;;;;;;5093255;28;20048;-49
2022/01/24 03:30:22;;;;;;;16.13;9.70;;;;;;;;;;5093300;28;20151;-49
2022/01/24 03:32:48;;;;;;;18.85;9.57;;;;;;;;;;5093346;28;20115;-48
2022/01/24 03:35:14;;;;;;;18.88;9.40;;;;;;;;;;5095672;28;20485;-47
2022/01/24 03:37:40;;;;;;;16.05;8.90;;;;;;;;;;5097345;28;20028;-47
2022/01/24 03:40:07;;;;;;;15.57;8.35;;;;;;;;;;5097386;28;20024;-48
2022/01/24 03:42:33;;;;;;;15.13;7.82;;;;;;;;;;5097253;28;20075;-52
2022/01/24 03:45:03;;;;;;;16.48;8.02;;;;;;;;;;5097075;28;20107;-47
2022/01/24 03:47:41;;;;;;;17.45;9.25;;;;;;;;;;5097031;28;20032;-48
2022/01/24 03:50:09;;;;;;;16.45;8.57;;;;;;;;;;5097060;28;20028;-47
2022/01/24 03:52:37;;;;;;;15.57;8.25;;;;;;;;;;5097111;28;20480;-52
2022/01/24 03:55:04;;;;;;;13.50;7.82;;;;;;;;;;5097108;28;20044;-48
2022/01/24 03:57:30;;;;;;;16.52;8.65;;;;;;;;;;5096903;28;20028;-54
2022/01/24 04:00:01;;;;;;;12.93;6.93;;;;;;;;;;5096966;28;20056;-47
2022/01/24 04:02:28;;;;;;;14.80;7.65;;;;;;;;;;5096940;28;20405;-53
2022/01/24 04:04:54;;;;;;;16.23;7.38;;;;;;;;;;5096917;28;20027;-51
2022/01/24 04:07:20;;;;;;;13.98;7.32;;;;;;;;;;5096590;28;20064;-51
2022/01/24 04:09:47;;;;;;;15.38;7.68;;;;;;;;;;5097027;28;20024;-52
2022/01/24 04:12:14;;;;;;;14.65;7.22;;;;;;;;;;5096718;28;20028;-47
2022/01/24 04:14:55;;;;;;;13.00;7.45;;;;;;;;;;5096676;28;20032;-48
2022/01/24 04:17:25;;;;;;;17.17;8.73;;;;;;;;;;5096640;28;20040;-46
2022/01/24 04:22:19;;;;;;;15.80;7.38;;;;;;;;;;5096573;28;20028;-50
2022/01/24 04:24:47;;;;;;;15.38;7.18;;;;;;;;;;5096322;28;20020;-53
2022/01/24 04:27:14;;;;;;;16.58;8.27;;;;;;;;;;5096315;28;20416;-51
2022/01/24 04:29:40;;;;;;;19.70;8.52;;;;;;;;;;5096326;28;20059;-48
2022/01/24 04:32:06;;;;;;;18.13;9.27;;;;;;;;;;5096435;28;20095;-49
2022/01/24 04:34:33;;;;;;;20.00;9.88;;;;;;;;;;5096204;28;20077;-50
2022/01/24 04:36:59;;;;;;;20.17;9.77;;;;;;;;;;5096402;28;20358;-48
2022/01/24 04:39:25;;;;;;;22.15;10.88;;;;;;;;;;5096188;28;20020;-49
2022/01/24 04:41:55;;;;;;;35.38;16.85;;;;;;;;;;5096289;28;20034;-49
2022/01/24 04:52:52;;;;;;;30.58;13.73;;;;;;;;;;5073930;28;20043;-47
2022/01/24 04:55:18;;;;;;;23.08;11.60;;;;;;;;;;5073384;28;20035;-47
2022/01/24 04:57:46;;;;;;;31.95;14.85;;;;;;;;;;5073139;28;20054;-51
2022/01/24 05:00:12;;;;;;;26.48;12.73;;;;;;;;;;5073653;28;20083;-48
2022/01/24 05:02:39;;;;;;;23.50;12.38;;;;;;;;;;5073763;28;20028;-49
2022/01/24 05:05:06;;;;;;;29.25;13.55;;;;;;;;;;5073471;28;20514;-48
2022/01/24 05:07:32;;;;;;;23.50;11.32;;;;;;;;;;5073306;28;20597;-49
2022/01/24 05:10:10;;;;;;;31.17;14.23;;;;;;;;;;5073583;28;20120;-49
2022/01/24 05:23:35;;;;;;;28.23;11.75;;;;;;;;;;5082173;28;20039;-48
2022/01/24 05:26:02;;;;;;;26.90;11.70;;;;;;;;;;5095084;28;20024;-51
2022/01/24 05:28:29;;;;;;;31.52;13.52;;;;;;;;;;5094898;28;20139;-50
2022/01/24 05:30:55;;;;;;;27.15;13.43;;;;;;;;;;5095172;28;20024;-48
2022/01/24 05:33:22;;;;;;;29.60;14.27;;;;;;;;;;5095047;28;20466;-47
2022/01/24 05:35:48;;;;;;;32.35;16.05;;;;;;;;;;5094985;28;20049;-50
2022/01/24 05:38:15;;;;;;;36.33;15.90;;;;;;;;;;5095089;28;20024;-49
2022/01/24 05:40:41;;;;;;;33.95;14.50;;;;;;;;;;5095047;28;20393;-46
2022/01/24 05:43:07;;;;;;;43.53;17.73;;;;;;;;;;5094832;28;20119;-47
2022/01/24 05:45:34;;;;;;;29.35;13.70;;;;;;;;;;5095370;28;20016;-52
2022/01/24 05:48:00;;;;;;;33.72;15.48;;;;;;;;;;5094678;28;20111;-47
2022/01/24 05:50:26;;;;;;;35.15;16.08;;;;;;;;;;5094985;28;20433;-47
2022/01/24 05:52:52;;;;;;;39.03;17.52;;;;;;;;;;5094918;28;20020;-52
2022/01/24 05:55:19;;;;;;;31.38;13.85;;;;;;;;;;5094824;28;20044;-46
2022/01/24 05:57:45;;;;;;;37.08;16.35;;;;;;;;;;5093790;28;20028;-46
2022/01/24 06:00:14;;;;;;;31.20;15.70;;;;;;;;;;5093694;28;20421;-51
2022/01/24 06:02:41;;;;;;;40.50;16.75;;;;;;;;;;5091584;28;20020;-49
2022/01/24 06:05:07;;;;;;;33.40;16.92;;;;;;;;;;5093796;28;20020;-50
2022/01/24 06:07:33;;;;;;;34.22;16.45;;;;;;;;;;5094725;28;20039;-49
2022/01/24 06:10:00;;;;;;;37.13;16.90;;;;;;;;;;5094603;28;20453;-49
2022/01/24 06:12:26;;;;;;;35.42;16.42;;;;;;;;;;5094432;28;20028;-46
2022/01/24 06:14:52;;;;;;;27.33;13.73;;;;;;;;;;5094276;28;20039;-46
2022/01/24 06:17:19;;;;;;;36.33;15.63;;;;;;;;;;5094233;28;20441;-47
2022/01/24 06:19:45;;;;;;;41.05;18.73;;;;;;;;;;5094309;28;20491;-47
2022/01/24 06:22:11;;;;;;;30.48;15.00;;;;;;;;;;5094397;28;20028;-47
2022/01/24 06:24:37;;;;;;;36.55;15.93;;;;;;;;;;5094222;28;20380;-47
2022/01/24 06:27:03;;;;;;;33.13;16.10;;;;;;;;;;5094261;28;20113;-47
2022/01/24 06:29:41;;;;;;;28.00;14.50;;;;;;;;;;5071372;28;20379;-49
2022/01/24 06:32:08;;;;;;;27.63;13.63;;;;;;;;;;5070756;28;20029;-50
2022/01/24 06:34:34;;;;;;;35.15;14.77;;;;;;;;;;5070557;28;20049;-49
2022/01/24 06:37:00;;;;;;;23.95;13.02;;;;;;;;;;5070628;28;20025;-51
2022/01/24 06:39:26;;;;;;;30.67;15.50;;;;;;;;;;5070665;28;20044;-50
2022/01/24 06:42:07;;;;;;;29.75;15.18;;;;;;;;;;5070553;28;20107;-49
2022/01/24 06:44:33;;;;;;;30.95;15.20;;;;;;;;;;5070420;28;20027;-49
2022/01/24 06:46:59;;;;;;;31.98;15.68;;;;;;;;;;5070284;28;20361;-50
2022/01/24 06:49:25;;;;;;;25.13;13.55;;;;;;;;;;5070298;28;20040;-50
2022/01/24 06:51:52;;;;;;;29.52;14.88;;;;;;;;;;5070479;28;20025;-50
2022/01/24 06:54:18;;;;;;;33.00;15.68;;;;;;;;;;5070174;28;20114;-51
2022/01/24 06:56:44;;;;;;;27.70;13.82;;;;;;;;;;5070222;28;20464;-49
2022/01/24 06:59:12;;;;;;;26.67;12.50;;;;;;;;;;5070132;28;20025;-50
2022/01/24 07:01:38;;;;;;;27.20;14.80;;;;;;;;;;5070202;28;20500;-50
2022/01/24 07:04:05;;;;;;;30.73;14.77;;;;;;;;;;5070384;28;20124;-50
2022/01/24 07:06:31;;;;;;;32.05;16.38;;;;;;;;;;5070111;28;20017;-50
2022/01/24 07:08:57;;;;;;;40.83;19.58;;;;;;;;;;5070011;28;20043;-51
2022/01/24 07:11:23;;;;;;;44.38;19.45;;;;;;;;;;5069953;28;20021;-49
2022/01/24 07:13:50;;;;;;;32.08;16.50;;;;;;;;;;5069828;28;20523;-50
2022/01/24 07:16:17;;;;;;;44.13;19.25;;;;;;;;;;5069723;28;20021;-51
2022/01/24 07:18:58;;;;;;;54.72;24.90;;;;;;;;;;5069719;28;20074;-52
2022/01/24 07:21:24;;;;;;;79.38;36.03;;;;;;;;;;5069702;28;20024;-51
2022/01/24 07:23:50;;;;;;;45.95;24.15;;;;;;;;;;5069846;28;20028;-51
2022/01/24 07:26:16;;;;;;;56.70;27.55;;;;;;;;;;5069664;28;20403;-52
2022/01/24 07:28:44;;;;;;;51.40;24.85;;;;;;;;;;5069319;28;20489;-51
2022/01/24 07:31:10;;;;;;;53.13;26.20;;;;;;;;;;5069702;28;20029;-51
2022/01/24 07:33:36;;;;;;;42.83;21.02;;;;;;;;;;5069629;28;20031;-50
2022/01/24 07:36:07;;;;;;;47.97;23.08;;;;;;;;;;5069554;28;20033;-50
2022/01/24 07:38:33;;;;;;;59.23;24.63;;;;;;;;;;5069498;28;20454;-51
2022/01/24 07:41:01;;;;;;;54.80;25.92;;;;;;;;;;5056126;28;20518;-51
2022/01/24 07:43:27;;;;;;;113.32;54.92;;;;;;;;;;5056018;28;20078;-49
2022/01/24 07:45:53;;;;;;;83.07;40.83;;;;;;;;;;5056341;28;20346;-50
2022/01/24 07:48:19;;;;;;;45.72;23.58;;;;;;;;;;5056252;28;20057;-49
2022/01/24 07:50:47;;;;;;;47.72;21.92;;;;;;;;;;5056074;28;20021;-49
2022/01/24 07:53:14;;;;;;;53.38;22.77;;;;;;;;;;5056018;28;20033;-50
2022/01/24 07:55:40;;;;;;;57.65;24.33;;;;;;;;;;5056127;28;20017;-48
2022/01/24 07:58:06;;;;;;;57.33;26.13;;;;;;;;;;5055957;28;20043;-49
2022/01/24 08:00:32;;;;;;;73.32;31.63;;;;;;;;;;5055956;28;20096;-49
2022/01/24 08:02:59;;;;;;;65.18;29.27;;;;;;;;;;5055798;28;20469;-49
2022/01/24 08:05:26;;;;;;;53.10;24.13;;;;;;;;;;5055738;28;20017;-49
2022/01/24 08:07:52;;;;;;;48.38;22.02;;;;;;;;;;5055496;28;20029;-48
2022/01/24 08:10:18;;;;;;;72.70;25.80;;;;;;;;;;5055536;28;20029;-49
2022/01/24 08:12:44;;;;;;;48.67;21.25;;;;;;;;;;5055454;28;20063;-49
2022/01/24 08:15:14;;;;;;;51.28;20.67;;;;;;;;;;5055255;28;20017;-49
2022/01/24 08:17:44;;;;;;;62.33;24.50;;;;;;;;;;5055409;28;20025;-50
2022/01/24 08:20:10;;;;;;;60.95;24.17;;;;;;;;;;5055650;28;20032;-49
2022/01/24 08:22:37;;;;;;;58.50;23.13;;;;;;;;;;5055167;28;20511;-49
2022/01/24 08:25:04;;;;;;;113.13;47.60;;;;;;;;;;5055324;28;20184;-49
2022/01/24 08:27:34;;;;;;;111.75;53.97;;;;;;;;;;5055115;28;20029;-49
2022/01/24 08:30:01;;;;;;;67.05;30.02;;;;;;;;;;5055102;28;20389;-49
2022/01/24 08:32:27;;;;;;;76.43;31.65;;;;;;;;;;5055177;28;20028;-49
2022/01/24 08:34:56;;;;;;;54.20;25.35;;;;;;;;;;5055041;28;20542;-49
2022/01/24 08:37:22;;;;;;;54.15;23.98;;;;;;;;;;5055282;28;20100;-49
2022/01/24 08:39:48;;;;;;;58.03;26.38;;;;;;;;;;5055003;28;20453;-49
2022/01/24 08:42:19;;;;;;;62.22;25.85;;;;;;;;;;5055136;28;20056;-50
2022/01/24 08:47:31;;;;;;;40.85;17.50;;;;;;;;;;5055269;28;20044;-51
2022/01/24 08:50:00;;;;;;;36.47;19.45;;;;;;;;;;5053627;28;20031;-51
2022/01/24 08:52:26;;;;;;;48.50;24.80;;;;;;;;;;5053818;28;20074;-50
2022/01/24 08:54:53;;;;;;;41.97;21.20;;;;;;;;;;5055235;28;20021;-49
2022/01/24 08:57:25;;;;;;;48.25;26.05;;;;;;;;;;5054521;28;20112;-49
2022/01/24 08:59:55;;;;;;;71.20;39.22;;;;;;;;;;5054738;28;20040;-50
2022/01/24 09:02:22;;;;;;;50.72;23.35;;;;;;;;;;5054638;28;20021;-50
2022/01/24 09:04:48;;;;;;;41.55;19.67;;;;;;;;;;5054687;28;20025;-51
2022/01/24 09:07:19;;;;;;;40.67;21.05;;;;;;;;;;5054595;28;20028;-49
2022/01/24 09:09:45;;;;;;;56.40;26.80;;;;;;;;;;5054476;28;20648;-50
2022/01/24 09:12:12;;;;;;;46.30;23.70;;;;;;;;;;5054675;28;20048;-50
2022/01/24 09:14:47;;;;;;;54.05;25.33;;;;;;;;;;5054194;28;20568;-50
2022/01/24 09:17:13;;;;;;;46.33;26.17;;;;;;;;;;5054523;28;20031;-50
2022/01/24 09:19:40;;;;;;;43.63;23.48;;;;;;;;;;5054231;28;20021;-50
2022/01/24 09:22:06;;;;;;;57.30;29.88;;;;;;;;;;5054209;28;20461;-50
2022/01/24 09:24:33;;;;;;;51.42;24.92;;;;;;;;;;5054170;28;20028;-49
2022/01/24 09:26:59;;;;;;;47.03;24.20;;;;;;;;;;5054395;28;20420;-51
2022/01/24 09:29:25;;;;;;;52.05;25.13;;;;;;;;;;5053598;28;20056;-53
2022/01/24 09:31:51;;;;;;;52.78;24.17;;;;;;;;;;5054126;28;20048;-51
2022/01/24 09:34:20;;;;;;;67.15;29.17;;;;;;;;;;5054010;28;20036;-51
2022/01/24 09:36:49;;;;;;;70.70;32.53;;;;;;;;;;5053854;28;20025;-51
2022/01/24 09:39:17;;;;;;;70.85;32.53;;;;;;;;;;5053984;28;20162;-51
2022/01/24 09:41:45;;;;;;;67.40;33.88;;;;;;;;;;5053916;28;20055;-51
2022/01/24 09:44:11;;;;;;;108.82;53.88;;;;;;;;;;5053947;28;20025;-50
2022/01/24 09:46:37;;;;;;;49.97;26.17;;;;;;;;;;5053819;28;20017;-50
2022/01/24 09:49:04;;;;;;;43.42;22.52;;;;;;;;;;5053706;28;20069;-50
2022/01/24 09:51:31;;;;;;;47.60;25.13;;;;;;;;;;5053870;28;20024;-50
2022/01/24 09:53:58;;;;;;;50.20;26.58;;;;;;;;;;5053645;28;20111;-51
2022/01/24 09:56:24;;;;;;;39.55;21.30;;;;;;;;;;5053789;28;20051;-52
2022/01/24 09:58:50;;;;;;;44.83;23.20;;;;;;;;;;5053584;28;20033;-49
2022/01/24 10:01:18;;;;;;;79.75;42.70;;;;;;;;;;5053472;28;20017;-49
2022/01/24 10:04:07;;;;;;;83.32;42.90;;;;;;;;;;5053138;28;20495;-49
2022/01/24 10:06:54;;;;;;;47.22;24.52;;;;;;;;;;5053974;28;20079;-49
2022/01/24 10:09:26;;;;;;;38.25;21.25;;;;;;;;;;5053282;28;20039;-49
2022/01/24 10:12:05;;;;;;;39.58;23.15;;;;;;;;;;5053349;28;20013;-49
2022/01/24 10:17:23;;;;;;;49.80;27.15;;;;;;;;;;5053596;28;20031;-49
2022/01/24 10:19:55;;;;;;;54.75;27.05;;;;;;;;;;5053518;28;20100;-50
2022/01/24 10:22:22;;;;;;;;;;;;;;;;;;5053642;28;20100;-49
2022/01/24 10:24:49;;;;;;;54.85;29.83;;;;;;;;;;5053240;28;19904;-49
2022/01/24 10:27:25;;;;;;;54.53;27.52;;;;;;;;;;5053245;28;20048;-49
2022/01/24 10:29:51;;;;;;;47.58;25.48;;;;;;;;;;5053169;28;20032;-50
2022/01/24 10:32:30;;;;;;;47.22;23.13;;;;;;;;;;5053317;28;20096;-49
2022/01/24 10:34:57;;;;;;;46.58;24.38;;;;;;;;;;5053122;28;20071;-49
2022/01/24 10:37:24;;;;;;;55.50;28.52;;;;;;;;;;5053117;28;20032;-50
2022/01/24 10:39:57;;;;;;;46.95;24.15;;;;;;;;;;5053131;28;20469;-50
2022/01/24 10:44:55;;;;;;;59.30;31.15;;;;;;;;;;5052842;28;20057;-49
2022/01/24 10:47:23;;;;;;;62.67;30.20;;;;;;;;;;5053012;28;20142;-49
2022/01/24 10:49:50;;;;;;;74.47;32.13;;;;;;;;;;5052843;28;20127;-50
2022/01/24 10:52:20;;;;;;;47.30;25.15;;;;;;;;;;5053098;28;20021;-48
2022/01/24 10:54:47;;;;;;;43.83;23.77;;;;;;;;;;5053058;28;20032;-48
2022/01/24 10:57:26;;;;;;;43.80;21.90;;;;;;;;;;5052914;28;20381;-50
2022/01/24 11:00:01;;;;;;;41.30;21.08;;;;;;;;;;5052931;28;20463;-49
2022/01/24 11:02:40;;;;;;;44.65;20.95;;;;;;;;;;5052818;28;20100;-50
2022/01/24 11:05:12;;;;;;;50.70;23.65;;;;;;;;;;5052712;28;20104;-50
2022/01/24 11:07:48;;;;;;;45.60;22.20;;;;;;;;;;5052718;28;20433;-48
2022/01/24 11:10:15;;;;;;;41.80;21.70;;;;;;;;;;5052804;28;20037;-48
2022/01/24 11:12:41;;;;;;;35.67;19.02;;;;;;;;;;5052949;28;20025;-48
2022/01/24 11:15:07;;;;;;;60.35;30.17;;;;;;;;;;5054512;28;20052;-51
2022/01/24 11:17:35;;;;;;;92.32;41.17;;;;;;;;;;5056607;28;20150;-51
2022/01/24 11:20:03;;;;;;;104.47;47.67;;;;;;;;;;5056324;28;20021;-49
2022/01/24 11:22:31;;;;;;;68.45;34.72;;;;;;;;;;5056577;28;20099;-49
2022/01/24 11:25:01;;;;;;;51.72;26.88;;;;;;;;;;5056416;28;20079;-48
2022/01/24 11:27:28;;;;;;;46.72;23.00;;;;;;;;;;5055903;28;20083;-48
2022/01/24 11:29:59;;;;;;;41.08;20.65;;;;;;;;;;5056228;28;20036;-48
2022/01/24 11:32:30;;;;;;;39.28;19.20;;;;;;;;;;5056453;28;20029;-48
2022/01/24 11:34:57;;;;;;;30.88;17.27;;;;;;;;;;5056334;28;20024;-48
2022/01/24 11:37:59;;;;;;;33.78;19.02;;;;;;;;;;5056329;28;20021;-48
2022/01/24 11:40:25;;;;;;;31.02;19.38;;;;;;;;;;5034108;28;20029;-48
2022/01/24 11:42:52;;;;;;;32.88;20.05;;;;;;;;;;5034041;28;20038;-48
2022/01/24 11:45:33;;;;;;;45.42;22.75;;;;;;;;;;5033969;28;20067;-48
2022/01/24 11:48:02;;;;;;;;;;;;;;;;;;5034444;28;20401;-49
2022/01/24 11:50:31;;;;;;;40.65;20.90;;;;;;;;;;5034010;28;19932;-48
2022/01/24 11:52:58;;;;;;;42.55;21.42;;;;;;;;;;5033853;28;20100;-49
2022/01/24 11:55:36;;;;;;;41.83;21.55;;;;;;;;;;5034103;28;20033;-49
2022/01/24 11:58:06;;;;;;;43.03;21.33;;;;;;;;;;5033623;28;20041;-49
2022/01/24 12:00:38;;;;;;;34.45;18.33;;;;;;;;;;5033629;28;20053;-48
2022/01/24 12:03:06;;;;;;;;;;;;;;;;;;5034135;28;20057;-49
2022/01/24 12:05:41;;;;;;;46.15;22.92;;;;;;;;;;5033588;28;19932;-49
2022/01/24 12:08:10;;;;;;;40.97;19.90;;;;;;;;;;5033657;28;20429;-49
2022/01/24 12:10:40;;;;;;;38.83;19.50;;;;;;;;;;5033631;28;20029;-49
2022/01/24 12:13:25;;;;;;;48.00;23.00;;;;;;;;;;5033673;28;20029;-48
2022/01/24 12:15:53;;;;;;;43.08;19.58;;;;;;;;;;5055559;28;20108;-49
2022/01/24 12:18:29;;;;;;;36.22;19.13;;;;;;;;;;5055347;28;20032;-49
2022/01/24 12:21:07;;;;;;;37.65;18.40;;;;;;;;;;5055430;28;20048;-49
2022/01/24 12:23:34;;;;;;;43.10;20.60;;;;;;;;;;5055359;28;20047;-49
2022/01/24 12:26:27;;;;;;;47.65;23.40;;;;;;;;;;5055344;28;20029;-49
2022/01/24 12:29:00;;;;;;;49.72;23.08;;;;;;;;;;5053799;28;20053;-49
2022/01/24 12:31:26;;;;;;;52.55;25.95;;;;;;;;;;5054960;28;20029;-49
2022/01/24 12:33:52;;;;;;;38.35;19.65;;;;;;;;;;5055508;28;20112;-49
2022/01/24 12:36:47;;;;;;;36.17;18.65;;;;;;;;;;5055097;28;20024;-49
2022/01/24 12:39:24;;;;;;;40.20;18.77;;;;;;;;;;5055163;28;20024;-49
2022/01/24 12:41:55;;;;;;;36.72;17.90;;;;;;;;;;5054916;28;20060;-49
2022/01/24 12:47:07;;;;;;;35.10;19.20;;;;;;;;;;5054962;28;20100;-49
2022/01/24 12:49:33;;;;;;;33.55;19.33;;;;;;;;;;5054855;28;20041;-49
2022/01/24 12:52:00;;;;;;;33.97;18.80;;;;;;;;;;5054736;28;20025;-49
2022/01/24 12:54:30;;;;;;;33.47;17.80;;;;;;;;;;5054714;28;20040;-49
2022/01/24 12:57:16;;;;;;;33.22;17.40;;;;;;;;;;5054862;28;20020;-49
2022/01/24 12:59:56;;;;;;;23.50;13.73;;;;;;;;;;5054760;28;20033;-49
2022/01/24 13:02:24;;;;;;;23.90;14.18;;;;;;;;;;5055170;28;20098;-49
2022/01/24 13:04:52;;;;;;;27.52;15.18;;;;;;;;;;5054648;28;20017;-49
2022/01/24 13:07:19;;;;;;;24.48;13.98;;;;;;;;;;5054910;28;20048;-49
2022/01/24 13:09:46;;;;;;;30.73;15.85;;;;;;;;;;5054387;28;20154;-49
2022/01/24 13:12:12;;;;;;;28.50;14.88;;;;;;;;;;5054441;28;20028;-49
2022/01/24 13:23:04;;;;;;;26.95;13.65;;;;;;;;;;5054722;28;20442;-49
2022/01/24 13:25:36;;;;;;;30.27;14.90;;;;;;;;;;5054165;28;20021;-49
2022/01/24 13:28:02;;;;;;;;;;;;;;;;;;5054247;28;20516;-49
2022/01/24 13:30:32;;;;;;;27.63;15.93;;;;;;;;;;5053926;28;19916;-49
2022/01/24 13:33:01;;;;;;;26.00;15.02;;;;;;;;;;5054190;28;20377;-49
2022/01/24 13:35:31;;;;;;;37.03;18.83;;;;;;;;;;5053965;28;20025;-49
2022/01/24 13:38:01;;;;;;;31.20;17.30;;;;;;;;;;5053469;28;20483;-50
2022/01/24 13:40:31;;;;;;;49.53;23.38;;;;;;;;;;5053815;28;20177;-50
2022/01/24 13:42:57;;;;;;;35.63;19.55;;;;;;;;;;5053810;28;20025;-50
2022/01/24 13:45:24;;;;;;;76.05;32.88;;;;;;;;;;5053728;28;20100;-50
2022/01/24 13:48:00;;;;;;;58.72;28.75;;;;;;;;;;5054049;28;20385;-50
2022/01/24 13:50:27;;;;;;;48.55;20.20;;;;;;;;;;5053767;28;20091;-50
2022/01/24 13:52:53;;;;;;;43.38;17.92;;;;;;;;;;5053760;28;20048;-53
2022/01/24 13:55:20;;;;;;;30.02;15.25;;;;;;;;;;5053669;28;20082;-50
2022/01/24 13:57:48;;;;;;;46.63;19.40;;;;;;;;;;5053482;28;20025;-50
2022/01/24 14:00:15;;;;;;;56.17;27.85;;;;;;;;;;5053232;28;20056;-50
2022/01/24 14:02:42;;;;;;;61.50;30.45;;;;;;;;;;5053531;28;20094;-49
2022/01/24 14:05:10;;;;;;;58.55;29.02;;;;;;;;;;5053383;28;20021;-49
2022/01/24 14:07:41;;;;;;;39.08;17.20;;;;;;;;;;5053375;28;20028;-50
2022/01/24 14:10:12;;;;;;;28.73;14.83;;;;;;;;;;5053157;28;20166;-49
2022/01/24 14:12:48;;;;;;;36.05;17.42;;;;;;;;;;5053365;28;20277;-52
2022/01/24 14:16:01;;;;;;;41.42;21.77;;;;;;;;;;5053219;28;20025;-49
2022/01/24 14:18:31;;;;;;;47.20;22.13;;;;;;;;;;5052917;28;20032;-49
2022/01/24 14:21:08;;;;;;;36.10;16.80;;;;;;;;;;5051086;28;20799;-48
2022/01/24 14:23:43;;;;;;;33.50;16.75;;;;;;;;;;5050535;28;20375;-47
2022/01/24 14:26:13;;;;;;;42.47;22.05;;;;;;;;;;5049406;28;20192;-50
2022/01/24 14:28:39;;;;;;;55.72;28.48;;;;;;;;;;5051128;28;20061;-48
2022/01/24 14:31:11;;;;;;;55.67;26.05;;;;;;;;;;5051275;28;20047;-48
2022/01/24 14:33:38;;;;;;;39.97;17.95;;;;;;;;;;5051664;28;20036;-49
2022/01/24 14:36:08;;;;;;;41.20;20.00;;;;;;;;;;5051330;28;20025;-49
2022/01/24 14:38:38;;;;;;;44.17;23.45;;;;;;;;;;5047795;28;20099;-49
2022/01/24 14:41:16;;;;;;;43.38;23.83;;;;;;;;;;5051258;28;20138;-49
2022/01/24 14:46:29;;;;;;;59.33;29.88;;;;;;;;;;5050860;28;20150;-49
2022/01/24 14:48:57;;;;;;;57.00;29.25;;;;;;;;;;5051854;28;20037;-48
2022/01/24 14:51:29;;;;;;;50.78;24.98;;;;;;;;;;5055860;28;20021;-49
2022/01/24 14:53:56;;;;;;;47.20;25.25;;;;;;;;;;5056059;28;20025;-49
2022/01/24 14:56:23;;;;;;;59.53;29.10;;;;;;;;;;5055921;28;20432;-50
2022/01/24 14:58:49;;;;;;;60.80;32.65;;;;;;;;;;5055804;28;20051;-50
2022/01/24 15:01:15;;;;;;;54.08;25.88;;;;;;;;;;5055977;28;20025;-51
2022/01/24 15:03:42;;;;;;;45.40;22.38;;;;;;;;;;5055962;28;20024;-51
2022/01/24 15:06:09;;;;;;;59.55;30.30;;;;;;;;;;5055778;28;20017;-50
2022/01/24 15:08:35;;;;;;;57.00;26.13;;;;;;;;;;5055479;28;20464;-51
2022/01/24 15:11:02;;;;;;;54.45;27.08;;;;;;;;;;5055637;28;20459;-50
2022/01/24 15:13:36;;;;;;;55.10;26.30;;;;;;;;;;5055643;28;20107;-51
2022/01/24 15:16:13;;;;;;;75.97;34.78;;;;;;;;;;5055351;28;20376;-49
2022/01/24 15:24:38;;;;;;;102.60;43.97;;;;;;;;;;5053798;28;20522;-44
2022/01/24 15:27:06;;;;;;;140.45;53.33;;;;;;;;;;5055302;28;20079;-46
2022/01/24 15:29:32;;;;;;;153.13;63.05;;;;;;;;;;5055058;28;20497;-47
2022/01/24 15:32:02;;;;;;;125.70;52.58;;;;;;;;;;5055459;28;20493;-45
2022/01/24 15:34:28;;;;;;;109.72;44.30;;;;;;;;;;5055343;28;20029;-45
2022/01/24 15:36:54;;;;;;;116.93;48.17;;;;;;;;;;5055238;28;20044;-45
2022/01/24 15:39:21;;;;;;;101.80;42.60;;;;;;;;;;5055148;28;20016;-44
2022/01/24 15:41:51;;;;;;;84.70;36.08;;;;;;;;;;5055373;28;20017;-44
2022/01/24 15:47:04;;;;;;;90.35;40.47;;;;;;;;;;5053529;28;20032;-45
2022/01/24 15:49:30;;;;;;;78.45;36.25;;;;;;;;;;5053035;28;20091;-46
2022/01/24 15:51:57;;;;;;;102.30;44.50;;;;;;;;;;5055260;28;20013;-46
2022/01/24 15:54:26;;;;;;;95.47;42.78;;;;;;;;;;5055176;28;20048;-46
2022/01/24 15:59:38;;;;;;;120.63;44.97;;;;;;;;;;5054185;28;20048;-45
2022/01/24 16:02:04;;;;;;;168.90;57.17;;;;;;;;;;5054403;28;20051;-47
2022/01/24 16:04:30;;;;;;;198.35;65.45;;;;;;;;;;5036710;28;20037;-47
2022/01/24 16:06:56;;;;;;;228.38;69.22;;;;;;;;;;5054928;28;20009;-45
2022/01/24 16:09:22;;;;;;;133.77;46.38;;;;;;;;;;5054552;28;20033;-45
2022/01/24 16:11:49;;;;;;;159.88;52.35;;;;;;;;;;5054857;28;20049;-46
2022/01/24 16:14:15;;;;;;;154.68;52.90;;;;;;;;;;5054583;28;20473;-46
2022/01/24 16:16:41;;;;;;;172.52;61.40;;;;;;;;;;5054588;28;20028;-44
2022/01/24 16:19:07;;;;;;;188.52;67.38;;;;;;;;;;5054362;28;20019;-46
2022/01/24 16:21:43;;;;;;;182.90;67.95;;;;;;;;;;5054249;28;20028;-48
2022/01/24 16:26:43;;;;;;;152.40;58.00;;;;;;;;;;5054107;28;20031;-44
2022/01/24 16:29:09;;;;;;;124.78;49.85;;;;;;;;;;5053841;28;20056;-46